createdAt,value
2023-05-15T00:02:18.966Z,1.00
2023-05-15T00:05:01.518Z,1.00
2023-05-15T00:07:44.037Z,1.00
2023-05-15T00:10:26.363Z,1.00
2023-05-15T00:13:08.773Z,1.00
2023-05-15T00:15:51.046Z,1.00
2023-05-15T00:18:34.215Z,1.00
2023-05-15T00:21:17.123Z,1.00
2023-05-15T00:23:59.551Z,1.00
2023-05-15T00:26:41.740Z,1.00
2023-05-15T00:29:25.491Z,1.00
2023-05-15T00:32:07.873Z,1.00
2023-05-15T00:34:50.328Z,1.00
2023-05-15T00:37:32.517Z,1.00
2023-05-15T00:40:21.063Z,1.00
2023-05-15T00:43:05.217Z,1.00
2023-05-15T00:45:48.347Z,1.00
2023-05-15T00:48:31.685Z,1.00
2023-05-15T00:51:14.113Z,9.00
2023-05-15T00:53:56.838Z,53.60
2023-05-15T00:56:40.386Z,94.90
2023-05-15T00:59:24.584Z,99.90
2023-05-15T01:02:07.110Z,99.90
2023-05-15T01:04:49.770Z,99.90
2023-05-15T01:07:35.367Z,99.90
2023-05-15T01:10:19.607Z,99.90
2023-05-15T01:13:03.742Z,99.90
2023-05-15T01:15:46.262Z,99.90
2023-05-15T01:18:32.504Z,99.90
2023-05-15T01:21:37.484Z,99.90
2023-05-15T01:24:59.507Z,99.90
2023-05-15T01:28:03.524Z,99.90
2023-05-15T01:30:49.316Z,99.90
2023-05-15T01:33:36.177Z,99.90
2023-05-15T01:36:43.172Z,99.90
2023-05-15T01:39:28.382Z,99.90
2023-05-15T01:42:15.569Z,99.90
2023-05-15T01:45:01.057Z,1.00
2023-05-15T01:47:48.510Z,1.00
2023-05-15T01:50:32.743Z,1.00
2023-05-15T01:53:16.509Z,1.00
2023-05-15T01:56:00.039Z,99.90
2023-05-15T01:58:44.097Z,99.90
2023-05-15T02:01:28.800Z,99.90
2023-05-15T02:04:12.581Z,99.90
2023-05-15T02:06:55.931Z,1.00
2023-05-15T02:09:39.149Z,1.00
2023-05-15T02:12:22.103Z,25.90
2023-05-15T02:15:06.230Z,14.70
2023-05-15T02:17:48.510Z,99.90
2023-05-15T02:20:31.041Z,99.90
2023-05-15T02:23:13.182Z,99.90
2023-05-15T02:26:28.322Z,99.90
2023-05-15T02:29:17.994Z,99.90
2023-05-15T02:32:09.927Z,1.00
2023-05-15T02:35:21.720Z,98.80
2023-05-15T02:38:10.106Z,99.90
2023-05-15T02:40:54.617Z,99.90
2023-05-15T02:43:39.197Z,99.90
2023-05-15T02:46:22.363Z,1.00
2023-05-15T02:49:05.382Z,1.00
2023-05-15T02:51:47.602Z,98.50
2023-05-15T02:54:30.046Z,99.90
2023-05-15T02:57:12.302Z,99.90
2023-05-15T02:59:57.303Z,99.90
2023-05-15T03:02:39.609Z,99.90
2023-05-15T03:05:22.340Z,99.90
2023-05-15T03:08:05.528Z,99.90
2023-05-15T03:10:48.027Z,99.90
2023-05-15T03:13:30.299Z,1.00
2023-05-15T03:16:12.860Z,1.00
2023-05-15T03:18:55.094Z,1.00
2023-05-15T03:21:37.627Z,1.00
2023-05-15T03:24:19.772Z,4.40
2023-05-15T03:27:02.325Z,1.00
2023-05-15T03:29:44.913Z,23.20
2023-05-15T03:32:27.467Z,99.90
2023-05-15T03:35:10.132Z,99.90
2023-05-15T03:37:52.527Z,1.00
2023-05-15T03:40:34.676Z,1.00
2023-05-15T03:43:17.184Z,97.70
2023-05-15T03:46:00.379Z,99.90
2023-05-15T03:48:42.856Z,1.00
2023-05-15T03:51:25.593Z,68.50
2023-05-15T03:54:09.411Z,1.00
2023-05-15T03:56:51.709Z,1.00
2023-05-15T03:59:34.340Z,25.90
2023-05-15T04:02:16.639Z,99.90
2023-05-15T04:04:59.320Z,99.90
2023-05-15T04:07:41.612Z,1.00
2023-05-15T04:10:24.306Z,1.00
2023-05-15T04:13:06.779Z,58.80
2023-05-15T04:15:49.303Z,99.90
2023-05-15T04:18:31.578Z,99.90
2023-05-15T04:21:14.146Z,99.90
2023-05-15T04:23:56.393Z,99.90
2023-05-15T04:26:39.018Z,99.90
2023-05-15T04:29:21.335Z,99.90
2023-05-15T04:32:04.077Z,99.90
2023-05-15T04:34:46.393Z,99.90
2023-05-15T04:37:32.090Z,1.00
2023-05-15T04:40:17.329Z,1.00
2023-05-15T04:42:59.801Z,1.00
2023-05-15T04:45:42.065Z,1.00
2023-05-15T04:48:24.554Z,1.00
2023-05-15T04:51:07.679Z,1.00
2023-05-15T04:53:50.321Z,1.00
2023-05-15T04:56:32.572Z,1.00
2023-05-15T04:59:17.611Z,1.00
2023-05-15T05:02:00.744Z,1.00
2023-05-15T05:04:45.826Z,55.40
2023-05-15T05:07:28.194Z,99.90
2023-05-15T05:10:11.046Z,99.90
2023-05-15T05:12:53.446Z,99.90
2023-05-15T05:15:37.231Z,99.90
2023-05-15T05:18:19.752Z,99.90
2023-05-15T05:21:03.312Z,99.90
2023-05-15T05:23:47.294Z,99.90
2023-05-15T05:26:30.082Z,99.90
2023-05-15T05:29:12.716Z,76.20
2023-05-15T05:31:56.007Z,62.20
2023-05-15T05:34:38.766Z,79.10
2023-05-15T05:37:21.335Z,98.10
2023-05-15T05:40:06.809Z,99.90
2023-05-15T05:42:49.348Z,99.90
2023-05-15T05:45:31.678Z,99.90
2023-05-15T05:48:14.266Z,99.90
2023-05-15T05:50:56.559Z,99.90
2023-05-15T05:53:39.685Z,99.90
2023-05-15T05:56:22.805Z,99.90
2023-05-15T05:59:06.502Z,99.90
2023-05-15T06:01:51.011Z,99.90
2023-05-15T06:04:34.507Z,99.90
2023-05-15T06:07:17.321Z,99.90
2023-05-15T06:09:59.960Z,99.90
2023-05-15T06:12:42.308Z,99.90
2023-05-15T06:15:24.904Z,99.90
2023-05-15T06:18:07.335Z,99.90
2023-05-15T06:20:49.902Z,99.90
2023-05-15T06:23:32.124Z,99.90
2023-05-15T06:26:14.799Z,99.90
2023-05-15T06:28:57.204Z,99.90
2023-05-15T06:31:39.655Z,99.90
2023-05-15T06:34:21.950Z,99.90
2023-05-15T06:37:04.601Z,99.90
2023-05-15T06:39:46.927Z,99.90
2023-05-15T06:42:29.458Z,99.90
2023-05-15T06:45:12.259Z,99.90
2023-05-15T06:47:54.786Z,99.90
2023-05-15T06:50:37.243Z,99.90
2023-05-15T06:53:21.057Z,99.90
2023-05-15T06:56:03.516Z,99.90
2023-05-15T06:58:45.992Z,99.90
2023-05-15T07:01:28.271Z,99.90
2023-05-15T07:04:12.952Z,99.90
2023-05-15T07:06:55.330Z,99.90
2023-05-15T07:09:37.951Z,99.90
2023-05-15T07:12:20.278Z,99.90
2023-05-15T07:15:02.763Z,99.90
2023-05-15T07:17:45.155Z,99.90
2023-05-15T07:20:31.005Z,99.90
2023-05-15T07:23:14.923Z,99.90
2023-05-15T07:25:57.426Z,99.90
2023-05-15T07:28:39.658Z,91.20
2023-05-15T07:31:22.173Z,38.50
2023-05-15T07:34:04.602Z,1.00
2023-05-15T07:36:47.319Z,1.00
2023-05-15T07:39:29.766Z,1.00
2023-05-15T07:42:12.587Z,44.90
2023-05-15T07:44:57.310Z,99.90
2023-05-15T07:47:45.980Z,99.90
2023-05-15T07:50:28.410Z,99.90
2023-05-15T07:53:11.249Z,99.90
2023-05-15T07:55:53.600Z,99.90
2023-05-15T07:58:37.870Z,99.90
2023-05-15T08:01:20.088Z,99.90
2023-05-15T08:04:03.770Z,99.90
2023-05-15T08:06:46.298Z,29.70
2023-05-15T08:09:28.796Z,57.50
2023-05-15T08:12:21.742Z,18.00
2023-05-15T08:15:04.816Z,20.70
2023-05-15T08:17:50.198Z,1.00
2023-05-15T08:20:32.775Z,1.00
2023-05-15T08:23:15.140Z,1.00
2023-05-15T08:25:57.579Z,1.00
2023-05-15T08:28:40.021Z,1.00
2023-05-15T08:31:22.569Z,1.00
2023-05-15T08:34:04.985Z,1.00
2023-05-15T08:36:47.703Z,1.00
2023-05-15T08:39:29.939Z,1.00
2023-05-15T08:42:21.750Z,1.00
2023-05-15T08:45:04.982Z,1.00
2023-05-15T08:47:47.757Z,1.00
2023-05-15T08:50:30.475Z,1.00
2023-05-15T08:53:14.679Z,99.90
2023-05-15T08:55:57.144Z,99.90
2023-05-15T08:58:40.023Z,99.90
2023-05-15T09:01:23.118Z,99.90
2023-05-15T09:04:05.744Z,99.90
2023-05-15T09:06:48.984Z,1.00
2023-05-15T09:09:37.450Z,1.00
2023-05-15T09:12:20.480Z,1.00
2023-05-15T09:15:25.124Z,1.00
2023-05-15T09:18:08.746Z,1.00
2023-05-15T09:20:52.070Z,1.00
2023-05-15T09:23:34.998Z,1.00
2023-05-15T09:26:17.572Z,1.00
2023-05-15T09:29:02.916Z,1.00
2023-05-15T09:31:48.412Z,1.00
2023-05-15T09:34:33.257Z,1.00
2023-05-15T09:37:33.656Z,1.00
2023-05-15T09:40:19.004Z,1.00
2023-05-15T09:43:01.549Z,1.00
2023-05-15T09:45:48.481Z,1.00
2023-05-15T09:48:31.907Z,20.00
2023-05-15T09:51:19.748Z,43.10
2023-05-15T09:54:02.399Z,25.70
2023-05-15T09:56:45.838Z,78.70
2023-05-15T09:59:29.208Z,99.90
2023-05-15T10:02:43.396Z,99.90
2023-05-15T10:05:42.579Z,99.90
2023-05-15T10:08:29.589Z,99.90
2023-05-15T10:11:12.298Z,99.90
2023-05-15T10:13:54.959Z,99.90
2023-05-15T10:16:39.645Z,99.90
2023-05-15T10:19:25.501Z,99.90
2023-05-15T10:22:09.131Z,99.90
2023-05-15T10:25:03.739Z,99.90
2023-05-15T10:27:48.153Z,99.90
2023-05-15T10:30:32.339Z,99.90
2023-05-15T10:33:15.989Z,99.90
2023-05-15T10:35:59.263Z,99.90
2023-05-15T10:38:43.454Z,99.90
2023-05-15T10:41:28.591Z,99.90
2023-05-15T10:44:11.749Z,99.90
2023-05-15T10:46:55.345Z,99.90
2023-05-15T10:49:38.044Z,99.90
2023-05-15T10:52:21.143Z,99.90
2023-05-15T10:55:07.312Z,99.90
2023-05-15T10:57:50.561Z,99.90
2023-05-15T11:00:33.109Z,99.90
2023-05-15T11:03:47.831Z,99.90
2023-05-15T11:06:32.536Z,99.90
2023-05-15T11:09:28.119Z,99.90
2023-05-15T11:12:11.879Z,99.90
2023-05-15T11:14:56.946Z,99.90
2023-05-15T11:17:59.562Z,99.90
2023-05-15T11:20:52.113Z,99.90
2023-05-15T11:23:41.523Z,99.90
2023-05-15T11:26:33.678Z,99.90
2023-05-15T11:29:19.905Z,99.90
2023-05-15T11:32:02.740Z,99.90
2023-05-15T11:34:49.870Z,99.90
2023-05-15T11:37:33.014Z,99.90
2023-05-15T11:40:27.124Z,99.90
2023-05-15T11:43:21.595Z,99.90
2023-05-15T11:46:05.367Z,99.90
2023-05-15T11:48:48.036Z,99.90
2023-05-15T11:51:31.786Z,99.90
2023-05-15T11:54:14.426Z,99.90
2023-05-15T11:57:00.306Z,99.90
2023-05-15T11:59:42.718Z,99.90
2023-05-15T12:02:25.368Z,99.90
2023-05-15T12:05:09.005Z,99.90
2023-05-15T12:07:52.831Z,99.90
2023-05-15T12:10:41.862Z,99.90
2023-05-15T12:13:25.792Z,99.90
2023-05-15T12:16:08.237Z,99.90
2023-05-15T12:18:51.072Z,99.90
2023-05-15T12:21:35.246Z,99.90
2023-05-15T12:24:21.354Z,99.90
2023-05-15T12:27:04.045Z,99.90
2023-05-15T12:29:46.988Z,99.90
2023-05-15T12:32:33.296Z,99.90
2023-05-15T12:35:16.594Z,99.90
2023-05-15T12:37:59.021Z,99.90
2023-05-15T12:40:43.382Z,99.90
2023-05-15T12:43:26.818Z,99.90
2023-05-15T12:46:10.033Z,99.90
2023-05-15T12:48:52.926Z,99.90
2023-05-15T12:51:46.106Z,99.90
2023-05-15T12:54:28.507Z,99.90
2023-05-15T12:57:12.103Z,99.90
2023-05-15T12:59:54.543Z,99.90
2023-05-15T13:02:37.746Z,99.90
2023-05-15T13:05:22.601Z,99.90
2023-05-15T13:08:07.578Z,99.90
2023-05-15T13:10:58.171Z,99.90
2023-05-15T13:13:48.627Z,99.90
2023-05-15T13:16:31.086Z,99.90
2023-05-15T13:19:14.141Z,99.90
2023-05-15T13:21:56.862Z,99.90
2023-05-15T13:24:39.449Z,99.90
2023-05-15T13:27:24.742Z,99.90
2023-05-15T13:30:08.324Z,99.90
2023-05-15T13:32:52.560Z,99.90
2023-05-15T13:35:43.773Z,99.90
2023-05-15T13:38:26.679Z,99.90
2023-05-15T13:41:09.896Z,99.90
2023-05-15T13:43:52.283Z,99.90
2023-05-15T13:46:35.163Z,99.90
2023-05-15T13:49:18.402Z,1.00
2023-05-15T13:52:01.304Z,99.90
2023-05-15T13:54:43.785Z,1.00
2023-05-15T13:57:26.804Z,1.00
2023-05-15T14:00:13.292Z,99.90
2023-05-15T14:02:56.219Z,95.20
2023-05-15T14:05:38.887Z,99.90
2023-05-15T14:08:21.733Z,99.90
2023-05-15T14:11:04.403Z,55.80
2023-05-15T14:13:47.445Z,90.00
2023-05-15T14:16:29.846Z,1.00
2023-05-15T14:19:12.522Z,99.90
2023-05-15T14:21:55.176Z,99.90
2023-05-15T14:24:37.905Z,99.90
2023-05-15T14:27:20.950Z,99.90
2023-05-15T14:30:04.641Z,99.90
2023-05-15T14:32:47.336Z,99.90
2023-05-15T14:35:30.011Z,99.90
2023-05-15T14:38:12.373Z,1.00
2023-05-15T14:40:55.017Z,1.00
2023-05-15T14:43:37.785Z,1.00
2023-05-15T14:46:20.577Z,99.90
2023-05-15T14:49:03.307Z,99.90
2023-05-15T14:51:46.045Z,99.90
2023-05-15T14:54:29.057Z,99.90
2023-05-15T14:57:12.660Z,99.90
2023-05-15T14:59:54.988Z,99.90
2023-05-15T15:02:37.707Z,47.90
2023-05-15T15:05:20.307Z,90.60
2023-05-15T15:08:07.052Z,99.90
2023-05-15T15:10:49.328Z,99.90
2023-05-15T15:13:32.082Z,54.40
2023-05-15T15:16:14.488Z,99.90
2023-05-15T15:18:57.234Z,99.90
2023-05-15T15:21:39.632Z,99.90
2023-05-15T15:24:22.158Z,99.90
2023-05-15T15:27:04.498Z,99.90
2023-05-15T15:29:47.070Z,99.90
2023-05-15T15:32:29.563Z,99.90
2023-05-15T15:35:13.206Z,99.90
2023-05-15T15:37:55.538Z,1.00
2023-05-15T15:40:38.056Z,31.40
2023-05-15T15:43:20.412Z,99.90
2023-05-15T15:46:03.090Z,47.30
2023-05-15T15:48:45.568Z,99.90
2023-05-15T15:51:28.167Z,99.90
2023-05-15T15:54:10.583Z,1.00
2023-05-15T15:56:53.120Z,1.00
2023-05-15T15:59:35.541Z,99.90
2023-05-15T16:02:21.011Z,99.90
2023-05-15T16:05:03.797Z,99.90
2023-05-15T16:07:47.942Z,99.90
2023-05-15T16:10:30.432Z,99.90
2023-05-15T16:13:13.343Z,99.90
2023-05-15T16:15:55.888Z,99.90
2023-05-15T16:18:38.469Z,99.90
2023-05-15T16:21:21.447Z,21.60
2023-05-15T16:24:04.264Z,1.00
2023-05-15T16:26:46.539Z,1.00
2023-05-15T16:29:29.278Z,1.00
2023-05-15T16:32:12.147Z,11.20
2023-05-15T16:34:54.763Z,1.00
2023-05-15T16:37:37.115Z,23.60
2023-05-15T16:40:19.686Z,12.90
2023-05-15T16:43:01.969Z,31.80
2023-05-15T16:45:48.137Z,66.00
2023-05-15T16:48:30.698Z,99.90
2023-05-15T16:51:13.871Z,70.60
2023-05-15T16:53:56.680Z,1.00
2023-05-15T16:56:39.331Z,1.00
2023-05-15T16:59:21.683Z,1.00
2023-05-15T17:02:04.528Z,99.90
2023-05-15T17:04:47.275Z,99.90
2023-05-15T17:07:30.335Z,99.90
2023-05-15T17:10:13.127Z,99.90
2023-05-15T17:12:55.861Z,87.70
2023-05-15T17:15:38.074Z,93.10
2023-05-15T17:18:20.638Z,78.30
2023-05-15T17:21:03.028Z,99.10
2023-05-15T17:23:45.704Z,99.90
2023-05-15T17:26:28.144Z,99.90
2023-05-15T17:29:11.061Z,99.90
2023-05-15T17:31:53.604Z,99.90
2023-05-15T17:34:36.207Z,1.00
2023-05-15T17:37:18.512Z,1.00
2023-05-15T17:40:01.471Z,1.00
2023-05-15T17:42:43.876Z,1.00
2023-05-15T17:45:27.253Z,1.00
2023-05-15T17:48:09.980Z,1.00
2023-05-15T17:50:52.977Z,1.00
2023-05-15T17:53:35.401Z,1.00
2023-05-15T17:56:18.484Z,1.00
2023-05-15T17:59:00.968Z,1.00
2023-05-15T18:01:43.554Z,1.00
2023-05-15T18:04:25.994Z,1.00
2023-05-15T18:07:08.625Z,1.00
2023-05-15T18:09:50.987Z,1.00
2023-05-15T18:12:35.242Z,1.00
2023-05-15T18:15:17.568Z,1.00
2023-05-15T18:18:00.294Z,1.00
2023-05-15T18:20:42.617Z,1.00
2023-05-15T18:23:25.247Z,1.00
2023-05-15T18:26:07.917Z,1.00
2023-05-15T18:28:50.528Z,1.00
2023-05-15T18:31:32.913Z,1.00
2023-05-15T18:34:15.548Z,1.00
2023-05-15T18:36:57.849Z,1.00
2023-05-15T18:39:42.938Z,1.00
2023-05-15T18:42:26.461Z,1.00
2023-05-15T18:45:09.743Z,1.00
2023-05-15T18:47:52.722Z,1.00
2023-05-15T18:50:36.530Z,1.00
2023-05-15T18:53:19.295Z,1.00
2023-05-15T18:56:02.854Z,1.00
2023-05-15T18:58:47.478Z,1.00
2023-05-15T19:01:30.692Z,61.90
2023-05-15T19:04:13.405Z,99.90
2023-05-15T19:06:56.323Z,99.90
2023-05-15T19:09:38.926Z,99.90
2023-05-15T19:12:21.754Z,99.90
2023-05-15T19:15:04.605Z,99.90
2023-05-15T19:17:47.127Z,1.00
2023-05-15T19:20:29.468Z,1.00
2023-05-15T19:23:13.026Z,1.00
2023-05-15T19:25:55.827Z,1.00
2023-05-15T19:28:39.118Z,1.00
2023-05-15T19:34:10.610Z,1.00
2023-05-15T19:36:53.505Z,1.00
2023-05-15T19:39:36.452Z,1.00
2023-05-15T19:42:19.090Z,1.00
2023-05-15T19:45:01.883Z,1.00
2023-05-15T19:47:44.547Z,1.00
2023-05-15T19:50:27.570Z,1.00
2023-05-15T19:53:12.203Z,1.00
2023-05-15T19:55:55.750Z,1.00
2023-05-15T19:58:38.489Z,1.00
2023-05-15T20:01:21.445Z,1.00
2023-05-15T20:04:03.973Z,1.00
2023-05-15T20:06:47.468Z,1.00
2023-05-15T20:09:30.126Z,1.00
2023-05-15T20:12:12.634Z,1.00
2023-05-15T20:14:54.917Z,1.00
2023-05-15T20:17:37.653Z,99.90
2023-05-15T20:20:21.865Z,99.90
2023-05-15T20:23:04.665Z,99.90
2023-05-15T20:25:48.397Z,99.90
2023-05-15T20:28:31.409Z,99.90
2023-05-15T20:31:13.717Z,99.90
2023-05-15T20:33:57.208Z,99.90
2023-05-15T20:36:39.957Z,99.90
2023-05-15T20:39:22.482Z,99.90
2023-05-15T20:42:05.302Z,99.90
2023-05-15T20:44:48.089Z,99.90
2023-05-15T20:47:30.318Z,99.90
2023-05-15T20:50:13.453Z,1.00
2023-05-15T20:52:55.883Z,1.00
2023-05-15T20:55:38.669Z,1.00
2023-05-15T20:58:21.380Z,1.00
2023-05-15T21:01:04.269Z,1.00
2023-05-15T21:03:46.670Z,1.00
2023-05-15T21:06:29.203Z,6.50
2023-05-15T21:09:13.700Z,24.90
2023-05-15T21:11:56.323Z,46.20
2023-05-15T21:14:38.737Z,88.50
2023-05-15T21:17:21.571Z,99.90
2023-05-15T21:20:05.020Z,99.90
2023-05-15T21:22:47.434Z,99.90
2023-05-15T21:25:29.594Z,99.90
2023-05-15T21:28:12.027Z,99.90
2023-05-15T21:30:54.375Z,99.90
2023-05-15T21:33:37.708Z,99.90
2023-05-15T21:36:20.802Z,99.90
2023-05-15T21:39:04.528Z,99.90
2023-05-15T21:41:46.912Z,99.90
2023-05-15T21:44:29.417Z,98.80
2023-05-15T21:47:11.803Z,80.60
2023-05-15T21:49:54.225Z,34.00
2023-05-15T21:52:36.500Z,1.00
2023-05-15T21:55:19.413Z,1.00
2023-05-15T21:58:02.225Z,1.00
2023-05-15T22:00:45.084Z,1.00
2023-05-15T22:03:27.670Z,1.00
2023-05-15T22:06:10.165Z,1.00
2023-05-15T22:08:52.302Z,1.00
2023-05-15T22:11:34.720Z,1.00
2023-05-15T22:14:16.872Z,1.00
2023-05-15T22:16:59.867Z,1.00
2023-05-15T22:19:45.836Z,9.20
2023-05-15T22:22:28.173Z,19.20
2023-05-15T22:25:10.634Z,7.80
2023-05-15T22:27:53.144Z,16.00
2023-05-15T22:30:35.569Z,1.00
2023-05-15T22:33:18.040Z,1.00
2023-05-15T22:36:00.308Z,1.00
2023-05-15T22:38:42.843Z,1.00
2023-05-15T22:41:25.002Z,1.00
2023-05-15T22:44:07.518Z,1.00
2023-05-15T22:46:49.718Z,1.00
2023-05-15T22:49:32.179Z,1.00
2023-05-15T22:52:14.908Z,1.00
2023-05-15T22:54:57.413Z,1.00
2023-05-15T22:57:39.659Z,1.00
2023-05-15T23:00:22.183Z,1.00
2023-05-15T23:03:04.359Z,1.00
2023-05-15T23:05:46.880Z,1.00
2023-05-15T23:08:29.029Z,1.00
2023-05-15T23:11:11.491Z,1.00
2023-05-15T23:13:54.063Z,1.00
2023-05-15T23:16:37.590Z,1.00
2023-05-15T23:19:20.025Z,1.00
2023-05-15T23:22:02.609Z,7.60
2023-05-15T23:24:44.806Z,63.60
2023-05-15T23:27:27.244Z,95.00
2023-05-15T23:30:10.106Z,99.90
2023-05-15T23:32:52.646Z,99.90
2023-05-15T23:35:34.822Z,99.90
2023-05-15T23:38:17.268Z,99.90
2023-05-15T23:41:00.322Z,99.90
2023-05-15T23:43:43.048Z,99.90
2023-05-15T23:46:25.708Z,99.90
2023-05-15T23:49:08.189Z,99.90
2023-05-15T23:51:50.455Z,99.90
2023-05-15T23:54:32.942Z,99.90
2023-05-15T23:57:16.073Z,99.90
